Aviation Digital Data Service (ADDS)

Output produced by METARs form (2235 UTC 25 April 2019)
found at http://aviationweather.gov/metar/data/
 
TAF LEMH 252000Z 2521/2621 22009KT 9999 FEW020 TX19/2613Z TN11/2606Z 
     BECMG 2606/2608 28015KT 
     BECMG 2616/2619 VRB04KT